Time;durP1;ratioP1;P1;durP2;ratioP2;P2;SDS_P1;SDS_P2;PMS_P1;PMS_P2;Temp;Humidity;BMP_temperature;BMP_pressure;BME280_temperature;BME280_humidity;BME280_pressure;Samples;Min_cycle;Max_cycle;Signal;HPM_P1;HPM_P2
2022/12/31 00:07:25;;;;;;;1.98;0.65;;;;;;;16.04;71.09;99800.03;20321220;29;20056;-87
2022/12/31 00:17:26;;;;;;;1.75;0.70;;;;;;;16.03;71.42;99814.44;20320871;29;20516;-87
2022/12/31 00:27:31;;;;;;;1.33;0.60;;;;;;;16.03;71.48;99811.75;20320336;29;20052;-88
2022/12/31 00:37:32;;;;;;;0.87;0.70;;;;;;;16.05;71.69;99817.81;20333945;29;20399;-87
2022/12/31 00:47:34;;;;;;;1.75;0.50;;;;;;;16.03;71.72;99819.81;20325442;29;20052;-87
2022/12/31 00:57:35;;;;;;;1.17;0.73;;;;;;;16.05;72.07;99823.19;20318092;29;20123;-87
2022/12/31 01:07:37;;;;;;;2.20;0.80;;;;;;;15.86;72.44;99789.22;20317469;29;20055;-87
2022/12/31 01:17:38;;;;;;;1.23;0.80;;;;;;;15.94;72.49;99818.03;20331516;29;20048;-87
2022/12/31 01:27:40;;;;;;;1.27;0.60;;;;;;;16.05;72.60;99860.78;20315643;29;20559;-87
2022/12/31 01:37:41;;;;;;;1.08;0.88;;;;;;;15.79;72.85;99820.34;20315364;29;20063;-87
2022/12/31 01:47:46;;;;;;;1.25;0.80;;;;;;;16.05;72.76;99841.97;20302155;29;20052;-86
2022/12/31 01:57:51;;;;;;;1.27;0.80;;;;;;;16.05;72.89;99841.97;20327765;29;20076;-87
2022/12/31 02:07:53;;;;;;;0.82;0.50;;;;;;;16.06;73.08;99848.19;20313814;29;20052;-87
2022/12/31 02:18:02;;;;;;;0.88;0.60;;;;;;;16.05;73.28;99839.28;20296987;29;20056;-87
2022/12/31 02:28:22;;;;;;;1.25;0.70;;;;;;;16.06;72.97;99845.50;20297243;29;20410;-87
2022/12/31 02:38:30;;;;;;;0.57;0.47;;;;;;;16.07;73.22;99847.19;20308605;29;20080;-88
2022/12/31 02:48:40;;;;;;;1.50;0.50;;;;;;;16.06;73.09;99835.63;20301387;29;20056;-87
2022/12/31 03:09:22;;;;;;;1.17;0.40;;;;;;;16.07;72.99;99825.69;20404130;29;20472;-87
2022/12/31 03:29:44;;;;;;;0.52;0.40;;;;;;;15.90;72.90;99781.72;20403221;29;20051;-87
2022/12/31 03:39:46;;;;;;;0.30;0.30;;;;;;;15.93;73.01;99790.31;20374355;29;20437;-88
2022/12/31 03:49:47;;;;;;;0.50;0.38;;;;;;;16.06;73.07;99819.50;20401306;29;20051;-87
2022/12/31 03:59:49;;;;;;;0.98;0.40;;;;;;;16.06;73.13;99835.63;20400299;29;20060;-87
2022/12/31 04:09:50;;;;;;;0.65;0.32;;;;;;;15.87;73.12;99815.06;20399656;29;20079;-87
2022/12/31 04:19:52;;;;;;;1.08;0.40;;;;;;;16.07;73.16;99853.41;20397952;29;20055;-87
2022/12/31 04:29:53;;;;;;;0.45;0.30;;;;;;;16.06;73.12;99848.19;20398073;29;20052;-88
2022/12/31 04:39:55;;;;;;;0.40;0.40;;;;;;;16.06;73.14;99849.03;20383924;29;20051;-86
2022/12/31 04:50:04;;;;;;;0.38;0.30;;;;;;;16.07;73.28;99847.19;20319230;29;20056;-87
2022/12/31 05:00:06;;;;;;;0.30;0.30;;;;;;;16.06;73.31;99840.97;20301816;29;20056;-88
2022/12/31 05:10:08;;;;;;;0.40;0.22;;;;;;;15.88;73.19;99797.13;20317676;29;20111;-88
2022/12/31 05:20:10;;;;;;;0.47;0.30;;;;;;;16.07;73.20;99826.56;20314850;29;20068;-87
2022/12/31 05:30:12;;;;;;;0.32;0.30;;;;;;;15.83;73.12;99794.03;20298857;29;20048;-88
2022/12/31 05:40:13;;;;;;;0.40;0.30;;;;;;;15.54;73.36;99763.66;20305715;29;20040;-88
2022/12/31 05:50:15;;;;;;;0.35;0.28;;;;;;;15.94;73.29;99805.44;20297254;29;20051;-87
2022/12/31 06:00:17;;;;;;;0.65;0.30;;;;;;;16.08;73.25;99859.59;20297585;29;20056;-87
2022/12/31 06:10:18;;;;;;;0.45;0.30;;;;;;;16.07;73.11;99858.78;20315380;29;20047;-89
2022/12/31 06:20:20;;;;;;;0.50;0.30;;;;;;;16.07;73.28;99863.28;20314122;29;20562;-87
2022/12/31 06:30:21;;;;;;;0.73;0.22;;;;;;;16.08;73.39;99886.47;20321680;29;20461;-87
2022/12/31 06:40:23;;;;;;;0.20;0.10;;;;;;;16.07;73.54;99869.53;20316427;29;20067;-86
2022/12/31 06:50:24;;;;;;;0.38;0.28;;;;;;;16.08;73.57;99868.53;20320172;29;20119;-88
2022/12/31 07:00:27;;;;;;;0.30;0.20;;;;;;;15.99;73.55;99847.94;20226759;29;20077;-87
2022/12/31 07:10:44;;;;;;;0.20;0.20;;;;;;;15.47;73.58;99768.81;20263948;29;20053;-88
2022/12/31 07:20:46;;;;;;;0.32;0.32;;;;;;;16.09;73.58;99855.94;20247926;29;20056;-87
2022/12/31 07:30:53;;;;;;;0.20;0.20;;;;;;;15.88;73.58;99826.66;20226753;29;20104;-87
2022/12/31 07:41:20;;;;;;;0.10;0.10;;;;;;;16.08;73.66;99870.34;20241109;29;20136;-87
2022/12/31 07:51:22;;;;;;;0.30;0.30;;;;;;;16.08;73.80;99881.94;20249184;29;20083;-88
2022/12/31 08:01:49;;;;;;;0.47;0.30;;;;;;;16.08;73.77;99881.09;20221801;29;20064;-87
2022/12/31 08:11:56;;;;;;;0.30;0.30;;;;;;;15.77;73.53;99823.16;20281841;29;20509;-88
2022/12/31 08:22:26;;;;;;;0.60;0.20;;;;;;;16.07;73.78;99899.06;20328122;29;20421;-88
2022/12/31 08:32:34;;;;;;;0.20;0.20;;;;;;;16.08;74.05;99881.09;20399752;28;20047;-88
2022/12/31 08:42:47;;;;;;;0.25;0.20;;;;;;;15.80;74.39;99835.44;20413505;28;20576;-86
2022/12/31 08:52:49;;;;;;;0.20;0.20;;;;;;;16.07;74.16;99891.00;20359843;29;20048;-96
2022/12/31 09:03:15;;;;;;;0.40;0.30;;;;;;;16.08;74.75;99898.06;20334512;29;20040;-88
2022/12/31 09:13:54;;;;;;;1.48;0.20;;;;;;;16.13;75.42;99912.88;20316492;29;20098;-87
2022/12/31 09:23:56;;;;;;;2.58;0.30;;;;;;;16.11;76.63;99923.75;20376414;29;20059;-89
2022/12/31 09:34:11;;;;;;;1.05;0.10;;;;;;;16.15;77.55;99913.56;20360451;28;20060;-89
2022/12/31 09:44:31;;;;;;;0.40;0.20;;;;;;;16.15;78.10;99905.50;20346489;29;20052;-87
2022/12/31 09:54:49;;;;;;;1.20;0.30;;;;;;;16.16;78.21;99942.97;20360407;29;20287;-89
2022/12/31 10:05:15;;;;;;;0.60;0.20;;;;;;;16.17;77.92;99970.66;20299527;28;20087;-89
2022/12/31 10:15:44;;;;;;;2.25;0.20;;;;;;;16.18;78.47;99970.53;20325193;28;20082;-88
2022/12/31 10:25:55;;;;;;;1.30;0.20;;;;;;;16.20;79.27;99967.66;20317824;28;20116;-88
2022/12/31 10:36:08;;;;;;;1.15;0.20;;;;;;;16.37;79.29;99977.66;20307386;29;20497;-89
2022/12/31 10:46:29;;;;;;;0.50;0.15;;;;;;;16.49;79.03;99982.81;20338537;28;20064;-89
2022/12/31 10:57:08;;;;;;;0.65;0.20;;;;;;;16.70;78.39;99993.31;20311643;29;20060;-87
2022/12/31 11:07:22;;;;;;;0.32;0.22;;;;;;;16.81;77.86;99989.56;20334925;29;20072;-86
2022/12/31 11:17:33;;;;;;;0.32;0.20;;;;;;;16.89;77.74;99984.28;20303611;28;20052;-90
2022/12/31 11:27:45;;;;;;;0.82;0.25;;;;;;;16.94;77.63;100000.78;20349922;29;20134;-90
2022/12/31 11:37:52;;;;;;;0.57;0.33;;;;;;;17.00;77.46;99977.00;20323265;28;20076;-89
2022/12/31 11:48:14;;;;;;;1.17;0.30;;;;;;;17.02;77.46;99980.38;20335255;28;20312;-89
2022/12/31 11:58:32;;;;;;;0.50;0.30;;;;;;;16.87;77.05;99956.69;20309604;28;20452;-89
2022/12/31 12:08:34;;;;;;;0.57;0.40;;;;;;;17.10;76.79;99991.22;20340711;28;20055;-91
2022/12/31 12:18:50;;;;;;;1.48;0.40;;;;;;;17.12;76.58;99972.25;20315237;29;20084;-89
2022/12/31 12:28:51;;;;;;;0.45;0.30;;;;;;;17.14;76.55;99968.38;20355019;28;20505;-89
2022/12/31 12:39:05;;;;;;;1.15;0.50;;;;;;;17.09;76.44;99973.38;20335317;28;20191;-90
2022/12/31 12:49:20;;;;;;;0.70;0.40;;;;;;;17.17;76.25;99978.00;20329860;28;20493;-90
2022/12/31 12:59:27;;;;;;;0.70;0.30;;;;;;;17.18;76.10;99991.28;20356018;28;20549;-90
2022/12/31 13:10:02;;;;;;;0.98;0.40;;;;;;;17.18;76.32;100011.97;20331757;28;20052;-85
2022/12/31 13:20:16;;;;;;;1.92;0.40;;;;;;;17.12;76.81;100001.84;20343842;28;20075;-86
2022/12/31 13:30:25;;;;;;;1.95;0.57;;;;;;;17.07;78.23;99988.84;20325257;29;20071;-85
2022/12/31 13:40:41;;;;;;;0.50;0.30;;;;;;;16.74;78.95;99929.31;20338685;29;20134;-87
2022/12/31 13:50:50;;;;;;;0.38;0.30;;;;;;;16.81;79.43;99950.06;20331120;29;20059;-87
2022/12/31 14:01:15;;;;;;;0.40;0.30;;;;;;;16.99;79.79;99996.81;20351888;29;20062;-83
2022/12/31 14:11:24;;;;;;;0.45;0.40;;;;;;;16.61;79.92;99933.25;20312595;28;20044;-89
2022/12/31 14:21:36;;;;;;;0.40;0.40;;;;;;;16.90;80.23;100020.91;20309922;28;20060;-86
2022/12/31 14:32:06;;;;;;;0.38;0.30;;;;;;;16.82;80.94;100026.19;20332270;28;20131;-86
2022/12/31 14:42:17;;;;;;;0.65;0.55;;;;;;;16.77;81.21;100009.66;20310808;29;20048;-86
2022/12/31 14:52:21;;;;;;;0.30;0.30;;;;;;;16.72;81.87;100030.75;20363987;28;20043;-85
2022/12/31 15:02:33;;;;;;;0.47;0.35;;;;;;;16.68;82.13;100039.13;20327370;29;20060;-88
2022/12/31 15:12:49;;;;;;;0.68;0.50;;;;;;;16.65;82.55;100039.44;20319333;29;20423;-88
2022/12/31 15:22:51;;;;;;;0.68;0.57;;;;;;;16.31;83.13;100010.44;20298094;29;20051;-88
2022/12/31 15:32:55;;;;;;;1.75;0.63;;;;;;;16.61;83.53;100064.09;20338450;29;20074;-89
2022/12/31 15:43:03;;;;;;;1.60;0.60;;;;;;;16.60;83.59;100090.09;20363046;29;20781;-91
2022/12/31 15:53:06;;;;;;;1.08;0.63;;;;;;;16.58;84.12;100118.94;20360658;29;20135;-88
2022/12/31 16:03:21;;;;;;;0.88;0.88;;;;;;;16.58;84.62;100107.38;20353944;29;20075;-89
2022/12/31 16:13:24;;;;;;;1.58;1.17;;;;;;;16.56;84.85;100099.44;20370442;29;20512;-90
2022/12/31 16:23:26;;;;;;;1.42;1.10;;;;;;;16.43;85.08;100077.44;20455364;23;20043;-92
2022/12/31 16:33:29;;;;;;;2.03;1.25;;;;;;;16.50;85.54;100079.38;20437212;28;20053;-91
2022/12/31 16:43:37;;;;;;;2.13;1.52;;;;;;;16.53;85.73;100078.25;20409326;28;20565;-88
2022/12/31 16:53:39;;;;;;;2.53;1.45;;;;;;;16.36;86.12;100050.31;20383599;28;20081;-86
2022/12/31 17:03:44;;;;;;;2.42;1.48;;;;;;;16.52;86.12;100060.44;20377611;28;20087;-87
2022/12/31 17:14:07;;;;;;;2.60;1.70;;;;;;;16.52;86.56;100060.44;20348789;28;20063;-86
2022/12/31 17:24:10;;;;;;;3.20;2.08;;;;;;;16.42;86.98;100035.44;20333018;28;20059;-87
2022/12/31 17:34:12;;;;;;;3.40;1.77;;;;;;;16.51;86.90;100056.06;20353460;28;20405;-88
2022/12/31 17:44:17;;;;;;;4.47;2.58;;;;;;;16.28;87.50;100005.38;20358486;28;20103;-87
2022/12/31 17:54:19;;;;;;;;;;;;;;;16.49;87.70;100017.75;20309796;28;20127;-86
2022/12/31 18:04:20;;;;;;;3.13;2.13;;;;;;;16.48;87.69;100037.53;20336699;28;20018;-87
2022/12/31 18:14:22;;;;;;;3.67;1.92;;;;;;;16.47;87.61;100044.75;20342372;28;20056;-86
2022/12/31 18:24:23;;;;;;;4.45;2.17;;;;;;;16.40;88.21;100042.81;20405517;28;20551;-86
2022/12/31 18:34:26;;;;;;;4.30;2.53;;;;;;;16.13;88.39;99983.53;20438296;28;20059;-91
2022/12/31 18:44:28;;;;;;;4.35;2.22;;;;;;;16.46;88.25;100048.41;20441588;28;20419;-88
2022/12/31 18:54:29;;;;;;;3.92;2.33;;;;;;;16.37;88.45;100020.63;20438024;28;20088;-87
2022/12/31 19:04:31;;;;;;;4.63;2.65;;;;;;;16.06;88.47;99977.91;20432085;28;20837;-87
2022/12/31 19:14:32;;;;;;;5.55;2.60;;;;;;;16.34;88.29;100017.38;20444837;28;20055;-88
2022/12/31 19:24:34;;;;;;;4.03;2.40;;;;;;;16.44;88.06;100053.09;20440764;28;20059;-86
2022/12/31 19:34:35;;;;;;;4.47;2.63;;;;;;;16.43;87.91;100048.72;20448892;28;20198;-86
2022/12/31 19:44:37;;;;;;;6.03;2.53;;;;;;;16.44;87.62;100054.94;20450532;28;20146;-86
2022/12/31 19:54:38;;;;;;;4.72;2.65;;;;;;;16.42;87.51;100052.41;20450637;28;20069;-88
2022/12/31 20:04:40;;;;;;;5.57;2.95;;;;;;;16.43;87.29;100055.94;20449335;28;20518;-88
2022/12/31 20:14:41;;;;;;;6.35;3.15;;;;;;;16.22;87.07;100012.19;20429111;28;20114;-89
2022/12/31 20:24:43;;;;;;;6.65;3.15;;;;;;;16.42;86.77;100056.94;20441628;28;20054;-90
2022/12/31 20:34:44;;;;;;;5.10;2.78;;;;;;;16.41;86.61;100060.63;20456163;28;20070;-91
2022/12/31 20:44:46;;;;;;;6.95;3.70;;;;;;;16.41;86.58;100074.06;20449249;28;20058;-93
2022/12/31 20:54:48;;;;;;;5.88;3.28;;;;;;;16.41;86.06;100099.06;20426424;28;20538;-92
2022/12/31 21:04:49;;;;;;;5.40;3.33;;;;;;;16.30;85.63;100080.44;20442134;28;20350;-91
2022/12/31 21:14:51;;;;;;;5.95;3.35;;;;;;;16.40;85.31;100075.06;20430874;28;20066;-91
2022/12/31 21:24:52;;;;;;;5.53;3.15;;;;;;;16.40;85.06;100088.47;20385843;28;20062;-90
2022/12/31 21:34:54;;;;;;;6.22;3.22;;;;;;;16.40;84.85;100093.84;20390895;28;20150;-93
2022/12/31 21:45:15;;;;;;;8.18;3.30;;;;;;;16.40;84.82;100118.03;20368220;28;20052;-88
2022/12/31 22:05:59;;;;;;;5.35;3.10;;;;;;;16.40;84.54;100136.84;20347256;28;20100;-88
2022/12/31 22:16:01;;;;;;;6.57;3.45;;;;;;;16.38;84.25;100151.25;20355660;29;20055;-88
2022/12/31 22:26:08;;;;;;;6.20;3.30;;;;;;;16.30;84.14;100152.97;20396422;28;20054;-89
2022/12/31 22:36:12;;;;;;;9.07;3.50;;;;;;;16.38;83.91;100169.19;20354407;28;20061;-89
2022/12/31 22:46:19;;;;;;;5.00;3.03;;;;;;;16.36;83.73;100169.38;20371652;28;20056;-86
2022/12/31 22:56:21;;;;;;;5.45;2.97;;;;;;;16.37;83.45;100171.06;20365273;29;20568;-90
2022/12/31 23:06:23;;;;;;;4.53;3.00;;;;;;;15.74;83.05;100078.38;20369135;28;20063;-88
2022/12/31 23:26:47;;;;;;;6.82;3.35;;;;;;;16.03;83.06;100152.72;20424960;28;20062;-88
2022/12/31 23:36:49;;;;;;;8.75;4.10;;;;;;;16.36;83.15;100227.59;20466042;28;20058;-86
2022/12/31 23:46:50;;;;;;;7.90;4.65;;;;;;;16.36;83.14;100223.09;20481586;28;20051;-86
2022/12/31 23:56:52;;;;;;;7.30;5.03;;;;;;;16.36;83.23;100230.28;20479966;29;20519;-87
